sensor_id;sensor_type;location;lat;lon;timestamp;P1;durP1;ratioP1;P2;durP2;ratioP2
14965;SDS011;7577;45.226;5.798;2022-09-09T00:20:05;1.77;;;0.70;;
14965;SDS011;7577;45.226;5.798;2022-09-09T00:22:42;3.20;;;0.97;;
14965;SDS011;7577;45.226;5.798;2022-09-09T00:25:16;3.37;;;0.97;;
14965;SDS011;7577;45.226;5.798;2022-09-09T00:38:26;1.50;;;0.83;;
14965;SDS011;7577;45.226;5.798;2022-09-09T00:43:54;2.73;;;0.83;;
14965;SDS011;7577;45.226;5.798;2022-09-09T00:46:55;1.53;;;0.90;;
14965;SDS011;7577;45.226;5.798;2022-09-09T00:49:34;1.83;;;1.00;;
14965;SDS011;7577;45.226;5.798;2022-09-09T00:52:17;3.50;;;1.43;;
14965;SDS011;7577;45.226;5.798;2022-09-09T00:54:54;4.00;;;1.03;;
14965;SDS011;7577;45.226;5.798;2022-09-09T00:57:28;3.30;;;1.40;;
14965;SDS011;7577;45.226;5.798;2022-09-09T01:00:24;2.73;;;0.80;;
14965;SDS011;7577;45.226;5.798;2022-09-09T01:03:10;2.80;;;1.00;;
14965;SDS011;7577;45.226;5.798;2022-09-09T01:09:30;4.67;;;1.50;;
14965;SDS011;7577;45.226;5.798;2022-09-09T01:12:24;2.73;;;1.10;;
14965;SDS011;7577;45.226;5.798;2022-09-09T01:15:16;2.73;;;1.07;;
14965;SDS011;7577;45.226;5.798;2022-09-09T01:17:54;2.63;;;0.80;;
14965;SDS011;7577;45.226;5.798;2022-09-09T01:35:00;1.00;;;0.60;;
14965;SDS011;7577;45.226;5.798;2022-09-09T01:48:12;1.20;;;0.80;;
14965;SDS011;7577;45.226;5.798;2022-09-09T01:50:53;2.67;;;1.00;;
14965;SDS011;7577;45.226;5.798;2022-09-09T02:12:20;3.40;;;0.77;;
14965;SDS011;7577;45.226;5.798;2022-09-09T02:15:05;0.97;;;0.70;;
14965;SDS011;7577;45.226;5.798;2022-09-09T02:17:58;3.90;;;0.90;;
14965;SDS011;7577;45.226;5.798;2022-09-09T02:20:35;1.63;;;0.70;;
14965;SDS011;7577;45.226;5.798;2022-09-09T02:27:06;1.27;;;0.80;;
14965;SDS011;7577;45.226;5.798;2022-09-09T02:29:50;1.60;;;1.00;;
14965;SDS011;7577;45.226;5.798;2022-09-09T02:32:35;1.20;;;0.73;;
14965;SDS011;7577;45.226;5.798;2022-09-09T02:35:23;1.77;;;0.70;;
14965;SDS011;7577;45.226;5.798;2022-09-09T02:48:41;2.43;;;0.73;;
14965;SDS011;7577;45.226;5.798;2022-09-09T02:51:17;2.43;;;0.70;;
14965;SDS011;7577;45.226;5.798;2022-09-09T02:53:59;0.87;;;0.73;;
14965;SDS011;7577;45.226;5.798;2022-09-09T02:56:42;2.30;;;0.77;;
14965;SDS011;7577;45.226;5.798;2022-09-09T02:59:15;1.70;;;0.90;;
14965;SDS011;7577;45.226;5.798;2022-09-09T03:01:58;1.07;;;0.77;;
14965;SDS011;7577;45.226;5.798;2022-09-09T03:04:29;4.33;;;0.77;;
14965;SDS011;7577;45.226;5.798;2022-09-09T03:06:59;3.03;;;0.80;;
14965;SDS011;7577;45.226;5.798;2022-09-09T03:09:31;1.33;;;1.00;;
14965;SDS011;7577;45.226;5.798;2022-09-09T03:12:04;2.60;;;0.87;;
14965;SDS011;7577;45.226;5.798;2022-09-09T03:14:42;2.03;;;0.80;;
14965;SDS011;7577;45.226;5.798;2022-09-09T03:17:14;1.97;;;1.00;;
14965;SDS011;7577;45.226;5.798;2022-09-09T03:22:37;1.30;;;1.03;;
14965;SDS011;7577;45.226;5.798;2022-09-09T03:25:08;1.80;;;1.00;;
14965;SDS011;7577;45.226;5.798;2022-09-09T03:27:38;1.70;;;0.93;;
14965;SDS011;7577;45.226;5.798;2022-09-09T03:30:09;1.97;;;0.83;;
14965;SDS011;7577;45.226;5.798;2022-09-09T03:32:43;2.83;;;0.80;;
14965;SDS011;7577;45.226;5.798;2022-09-09T03:42:06;1.17;;;0.80;;
14965;SDS011;7577;45.226;5.798;2022-09-09T03:44:54;2.97;;;0.73;;
14965;SDS011;7577;45.226;5.798;2022-09-09T03:58:38;1.67;;;0.80;;
14965;SDS011;7577;45.226;5.798;2022-09-09T04:01:09;1.33;;;1.03;;
14965;SDS011;7577;45.226;5.798;2022-09-09T04:03:44;0.97;;;0.87;;
14965;SDS011;7577;45.226;5.798;2022-09-09T04:09:39;1.20;;;1.00;;
14965;SDS011;7577;45.226;5.798;2022-09-09T04:12:29;2.20;;;1.00;;
14965;SDS011;7577;45.226;5.798;2022-09-09T04:15:10;1.83;;;1.17;;
14965;SDS011;7577;45.226;5.798;2022-09-09T04:17:40;1.30;;;1.00;;
14965;SDS011;7577;45.226;5.798;2022-09-09T04:20:10;1.13;;;0.90;;
14965;SDS011;7577;45.226;5.798;2022-09-09T04:22:41;1.43;;;0.80;;
14965;SDS011;7577;45.226;5.798;2022-09-09T04:25:11;2.40;;;1.00;;
14965;SDS011;7577;45.226;5.798;2022-09-09T04:27:42;1.23;;;0.93;;
14965;SDS011;7577;45.226;5.798;2022-09-09T04:30:12;2.03;;;1.10;;
14965;SDS011;7577;45.226;5.798;2022-09-09T04:32:43;2.73;;;1.10;;
14965;SDS011;7577;45.226;5.798;2022-09-09T04:35:14;2.13;;;0.90;;
14965;SDS011;7577;45.226;5.798;2022-09-09T04:37:58;1.80;;;0.80;;
14965;SDS011;7577;45.226;5.798;2022-09-09T04:40:30;0.90;;;0.90;;
14965;SDS011;7577;45.226;5.798;2022-09-09T04:43:00;2.87;;;1.00;;
14965;SDS011;7577;45.226;5.798;2022-09-09T04:45:48;1.77;;;1.27;;
14965;SDS011;7577;45.226;5.798;2022-09-09T04:48:19;0.80;;;0.80;;
14965;SDS011;7577;45.226;5.798;2022-09-09T04:50:55;2.13;;;1.07;;
14965;SDS011;7577;45.226;5.798;2022-09-09T04:53:33;0.80;;;0.80;;
14965;SDS011;7577;45.226;5.798;2022-09-09T04:59:12;3.40;;;1.07;;
14965;SDS011;7577;45.226;5.798;2022-09-09T05:01:49;2.03;;;1.23;;
14965;SDS011;7577;45.226;5.798;2022-09-09T05:10:19;1.20;;;0.90;;
14965;SDS011;7577;45.226;5.798;2022-09-09T05:12:52;5.23;;;1.00;;
14965;SDS011;7577;45.226;5.798;2022-09-09T05:15:23;1.20;;;1.10;;
14965;SDS011;7577;45.226;5.798;2022-09-09T05:17:57;2.27;;;1.10;;
14965;SDS011;7577;45.226;5.798;2022-09-09T05:20:27;1.50;;;1.00;;
14965;SDS011;7577;45.226;5.798;2022-09-09T05:22:57;1.03;;;0.80;;
14965;SDS011;7577;45.226;5.798;2022-09-09T05:25:42;4.80;;;1.20;;
14965;SDS011;7577;45.226;5.798;2022-09-09T05:28:14;2.40;;;1.03;;
14965;SDS011;7577;45.226;5.798;2022-09-09T05:30:58;2.33;;;0.93;;
14965;SDS011;7577;45.226;5.798;2022-09-09T05:33:32;1.33;;;1.00;;
14965;SDS011;7577;45.226;5.798;2022-09-09T05:36:13;4.70;;;1.10;;
14965;SDS011;7577;45.226;5.798;2022-09-09T05:38:44;1.63;;;1.00;;
14965;SDS011;7577;45.226;5.798;2022-09-09T05:41:14;2.67;;;1.10;;
14965;SDS011;7577;45.226;5.798;2022-09-09T05:43:47;2.50;;;1.00;;
14965;SDS011;7577;45.226;5.798;2022-09-09T05:46:30;1.50;;;0.97;;
14965;SDS011;7577;45.226;5.798;2022-09-09T05:49:01;1.73;;;0.80;;
14965;SDS011;7577;45.226;5.798;2022-09-09T05:51:32;2.03;;;1.07;;
14965;SDS011;7577;45.226;5.798;2022-09-09T05:54:16;2.03;;;1.00;;
14965;SDS011;7577;45.226;5.798;2022-09-09T05:56:46;3.23;;;1.00;;
14965;SDS011;7577;45.226;5.798;2022-09-09T05:59:18;2.17;;;1.20;;
14965;SDS011;7577;45.226;5.798;2022-09-09T06:01:50;2.53;;;1.10;;
14965;SDS011;7577;45.226;5.798;2022-09-09T06:04:21;1.67;;;1.20;;
14965;SDS011;7577;45.226;5.798;2022-09-09T06:06:52;2.13;;;1.10;;
14965;SDS011;7577;45.226;5.798;2022-09-09T06:09:22;4.83;;;1.30;;
14965;SDS011;7577;45.226;5.798;2022-09-09T06:11:52;1.33;;;1.23;;
14965;SDS011;7577;45.226;5.798;2022-09-09T06:14:22;1.50;;;0.97;;
14965;SDS011;7577;45.226;5.798;2022-09-09T06:16:54;1.30;;;1.20;;
14965;SDS011;7577;45.226;5.798;2022-09-09T06:19:24;1.90;;;1.77;;
14965;SDS011;7577;45.226;5.798;2022-09-09T06:21:54;8.93;;;8.33;;
14965;SDS011;7577;45.226;5.798;2022-09-09T06:24:25;15.17;;;14.33;;
14965;SDS011;7577;45.226;5.798;2022-09-09T06:26:57;20.87;;;19.80;;
14965;SDS011;7577;45.226;5.798;2022-09-09T06:29:27;51.70;;;49.07;;
14965;SDS011;7577;45.226;5.798;2022-09-09T06:31:58;57.37;;;54.57;;
14965;SDS011;7577;45.226;5.798;2022-09-09T06:34:28;66.33;;;63.07;;
14965;SDS011;7577;45.226;5.798;2022-09-09T06:37:11;71.10;;;67.57;;
14965;SDS011;7577;45.226;5.798;2022-09-09T06:39:42;111.77;;;105.43;;
14965;SDS011;7577;45.226;5.798;2022-09-09T06:42:12;118.67;;;112.73;;
14965;SDS011;7577;45.226;5.798;2022-09-09T06:44:53;119.40;;;113.40;;
14965;SDS011;7577;45.226;5.798;2022-09-09T06:47:24;145.63;;;138.60;;
14965;SDS011;7577;45.226;5.798;2022-09-09T06:49:54;140.17;;;133.10;;
14965;SDS011;7577;45.226;5.798;2022-09-09T06:52:25;154.63;;;146.80;;
14965;SDS011;7577;45.226;5.798;2022-09-09T06:54:55;144.30;;;136.80;;
14965;SDS011;7577;45.226;5.798;2022-09-09T06:57:26;169.62;;;161.25;;
14965;SDS011;7577;45.226;5.798;2022-09-09T06:59:57;160.45;;;152.00;;
14965;SDS011;7577;45.226;5.798;2022-09-09T07:02:28;160.82;;;152.93;;
14965;SDS011;7577;45.226;5.798;2022-09-09T07:04:58;173.38;;;164.37;;
14965;SDS011;7577;45.226;5.798;2022-09-09T07:07:28;176.72;;;168.02;;
14965;SDS011;7577;45.226;5.798;2022-09-09T07:09:58;158.80;;;150.53;;
14965;SDS011;7577;45.226;5.798;2022-09-09T07:12:28;170.00;;;161.15;;
14965;SDS011;7577;45.226;5.798;2022-09-09T07:14:58;179.38;;;169.97;;
14965;SDS011;7577;45.226;5.798;2022-09-09T07:17:28;189.80;;;179.95;;
14965;SDS011;7577;45.226;5.798;2022-09-09T07:19:59;180.65;;;170.65;;
14965;SDS011;7577;45.226;5.798;2022-09-09T07:22:31;171.47;;;162.27;;
14965;SDS011;7577;45.226;5.798;2022-09-09T07:25:01;198.75;;;188.95;;
14965;SDS011;7577;45.226;5.798;2022-09-09T07:27:31;191.12;;;181.00;;
14965;SDS011;7577;45.226;5.798;2022-09-09T07:30:02;196.27;;;185.90;;
14965;SDS011;7577;45.226;5.798;2022-09-09T07:32:33;200.47;;;189.90;;
14965;SDS011;7577;45.226;5.798;2022-09-09T07:35:04;185.22;;;176.35;;
14965;SDS011;7577;45.226;5.798;2022-09-09T07:37:36;196.53;;;186.22;;
14965;SDS011;7577;45.226;5.798;2022-09-09T07:40:07;180.87;;;171.28;;
14965;SDS011;7577;45.226;5.798;2022-09-09T07:42:38;217.62;;;206.75;;
14965;SDS011;7577;45.226;5.798;2022-09-09T07:45:22;211.18;;;200.35;;
14965;SDS011;7577;45.226;5.798;2022-09-09T07:47:55;207.35;;;196.37;;
14965;SDS011;7577;45.226;5.798;2022-09-09T07:50:25;207.50;;;197.02;;
14965;SDS011;7577;45.226;5.798;2022-09-09T07:52:56;217.22;;;206.05;;
14965;SDS011;7577;45.226;5.798;2022-09-09T07:55:26;196.43;;;186.55;;
14965;SDS011;7577;45.226;5.798;2022-09-09T07:57:57;189.85;;;180.42;;
14965;SDS011;7577;45.226;5.798;2022-09-09T08:00:27;198.65;;;188.75;;
14965;SDS011;7577;45.226;5.798;2022-09-09T08:02:57;206.43;;;196.10;;
14965;SDS011;7577;45.226;5.798;2022-09-09T08:05:28;204.25;;;193.62;;
14965;SDS011;7577;45.226;5.798;2022-09-09T08:07:58;180.95;;;171.53;;
14965;SDS011;7577;45.226;5.798;2022-09-09T08:10:28;187.07;;;177.25;;
14965;SDS011;7577;45.226;5.798;2022-09-09T08:13:09;187.95;;;178.02;;
14965;SDS011;7577;45.226;5.798;2022-09-09T08:15:41;176.57;;;167.40;;
14965;SDS011;7577;45.226;5.798;2022-09-09T08:18:28;180.25;;;171.35;;
14965;SDS011;7577;45.226;5.798;2022-09-09T08:20:58;162.70;;;154.38;;
14965;SDS011;7577;45.226;5.798;2022-09-09T08:23:39;184.15;;;174.55;;
14965;SDS011;7577;45.226;5.798;2022-09-09T08:26:11;194.72;;;184.80;;
14965;SDS011;7577;45.226;5.798;2022-09-09T08:28:42;191.47;;;182.17;;
14965;SDS011;7577;45.226;5.798;2022-09-09T08:31:13;181.10;;;172.02;;
14965;SDS011;7577;45.226;5.798;2022-09-09T08:33:45;184.07;;;174.27;;
14965;SDS011;7577;45.226;5.798;2022-09-09T08:36:31;169.80;;;161.47;;
14965;SDS011;7577;45.226;5.798;2022-09-09T08:39:03;177.25;;;168.52;;
14965;SDS011;7577;45.226;5.798;2022-09-09T08:41:41;189.32;;;179.38;;
14965;SDS011;7577;45.226;5.798;2022-09-09T08:44:28;169.37;;;161.03;;
14965;SDS011;7577;45.226;5.798;2022-09-09T08:47:03;165.85;;;157.90;;
14965;SDS011;7577;45.226;5.798;2022-09-09T08:49:56;161.00;;;152.38;;
14965;SDS011;7577;45.226;5.798;2022-09-09T08:52:37;151.03;;;143.33;;
14965;SDS011;7577;45.226;5.798;2022-09-09T08:55:15;158.70;;;150.57;;
14965;SDS011;7577;45.226;5.798;2022-09-09T08:57:46;157.07;;;148.50;;
14965;SDS011;7577;45.226;5.798;2022-09-09T09:00:19;160.33;;;152.20;;
14965;SDS011;7577;45.226;5.798;2022-09-09T09:02:53;136.17;;;129.37;;
14965;SDS011;7577;45.226;5.798;2022-09-09T09:05:26;111.80;;;106.27;;
14965;SDS011;7577;45.226;5.798;2022-09-09T09:08:01;113.43;;;107.30;;
14965;SDS011;7577;45.226;5.798;2022-09-09T09:10:36;97.33;;;92.57;;
14965;SDS011;7577;45.226;5.798;2022-09-09T09:13:12;100.80;;;95.70;;
14965;SDS011;7577;45.226;5.798;2022-09-09T09:15:50;116.07;;;110.07;;
14965;SDS011;7577;45.226;5.798;2022-09-09T09:18:24;114.00;;;108.27;;
14965;SDS011;7577;45.226;5.798;2022-09-09T09:20:57;87.13;;;82.53;;
14965;SDS011;7577;45.226;5.798;2022-09-09T09:23:30;122.37;;;116.33;;
14965;SDS011;7577;45.226;5.798;2022-09-09T09:26:06;115.73;;;109.93;;
14965;SDS011;7577;45.226;5.798;2022-09-09T09:28:40;110.53;;;104.57;;
14965;SDS011;7577;45.226;5.798;2022-09-09T09:31:10;113.77;;;107.97;;
14965;SDS011;7577;45.226;5.798;2022-09-09T09:33:45;122.17;;;115.97;;
14965;SDS011;7577;45.226;5.798;2022-09-09T09:36:17;109.73;;;104.43;;
14965;SDS011;7577;45.226;5.798;2022-09-09T09:38:59;103.17;;;98.23;;
14965;SDS011;7577;45.226;5.798;2022-09-09T09:41:34;105.20;;;99.87;;
14965;SDS011;7577;45.226;5.798;2022-09-09T09:44:18;93.90;;;89.07;;
14965;SDS011;7577;45.226;5.798;2022-09-09T09:47:05;91.10;;;86.67;;
14965;SDS011;7577;45.226;5.798;2022-09-09T09:49:53;95.27;;;90.57;;
14965;SDS011;7577;45.226;5.798;2022-09-09T09:52:26;90.63;;;85.90;;
14965;SDS011;7577;45.226;5.798;2022-09-09T09:54:58;81.43;;;77.50;;
14965;SDS011;7577;45.226;5.798;2022-09-09T09:57:30;88.03;;;83.60;;
14965;SDS011;7577;45.226;5.798;2022-09-09T10:00:02;83.40;;;79.17;;
14965;SDS011;7577;45.226;5.798;2022-09-09T10:02:37;82.93;;;78.80;;
14965;SDS011;7577;45.226;5.798;2022-09-09T10:05:13;83.63;;;79.57;;
14965;SDS011;7577;45.226;5.798;2022-09-09T10:08:01;81.67;;;77.50;;
14965;SDS011;7577;45.226;5.798;2022-09-09T10:10:48;88.23;;;83.90;;
14965;SDS011;7577;45.226;5.798;2022-09-09T10:13:24;61.50;;;58.47;;
14965;SDS011;7577;45.226;5.798;2022-09-09T10:16:19;65.83;;;62.63;;
14965;SDS011;7577;45.226;5.798;2022-09-09T10:19:00;63.07;;;60.00;;
14965;SDS011;7577;45.226;5.798;2022-09-09T10:21:41;76.13;;;72.53;;
14965;SDS011;7577;45.226;5.798;2022-09-09T10:24:26;70.73;;;67.43;;
14965;SDS011;7577;45.226;5.798;2022-09-09T10:27:14;72.07;;;68.53;;
14965;SDS011;7577;45.226;5.798;2022-09-09T10:29:56;63.63;;;60.73;;
14965;SDS011;7577;45.226;5.798;2022-09-09T10:32:44;56.43;;;53.70;;
14965;SDS011;7577;45.226;5.798;2022-09-09T10:35:25;73.87;;;70.37;;
14965;SDS011;7577;45.226;5.798;2022-09-09T10:38:21;58.40;;;55.47;;
14965;SDS011;7577;45.226;5.798;2022-09-09T10:41:08;62.47;;;59.37;;
14965;SDS011;7577;45.226;5.798;2022-09-09T10:44:12;46.33;;;44.10;;
14965;SDS011;7577;45.226;5.798;2022-09-09T10:46:52;55.07;;;52.30;;
14965;SDS011;7577;45.226;5.798;2022-09-09T10:49:37;55.90;;;53.27;;
14965;SDS011;7577;45.226;5.798;2022-09-09T10:52:14;52.73;;;50.30;;
14965;SDS011;7577;45.226;5.798;2022-09-09T10:54:47;47.43;;;45.23;;
14965;SDS011;7577;45.226;5.798;2022-09-09T10:57:24;52.23;;;49.60;;
14965;SDS011;7577;45.226;5.798;2022-09-09T10:59:58;48.73;;;46.37;;
14965;SDS011;7577;45.226;5.798;2022-09-09T11:02:33;31.13;;;29.53;;
14965;SDS011;7577;45.226;5.798;2022-09-09T11:05:08;50.50;;;47.83;;
14965;SDS011;7577;45.226;5.798;2022-09-09T11:07:41;56.43;;;53.37;;
14965;SDS011;7577;45.226;5.798;2022-09-09T11:10:17;42.17;;;40.20;;
14965;SDS011;7577;45.226;5.798;2022-09-09T11:12:52;48.63;;;46.30;;
14965;SDS011;7577;45.226;5.798;2022-09-09T11:15:28;50.20;;;47.57;;
14965;SDS011;7577;45.226;5.798;2022-09-09T11:18:09;54.37;;;51.73;;
14965;SDS011;7577;45.226;5.798;2022-09-09T11:20:41;50.33;;;47.83;;
14965;SDS011;7577;45.226;5.798;2022-09-09T11:23:13;54.20;;;51.47;;
14965;SDS011;7577;45.226;5.798;2022-09-09T11:25:47;52.47;;;49.87;;
14965;SDS011;7577;45.226;5.798;2022-09-09T11:28:27;43.57;;;41.47;;
14965;SDS011;7577;45.226;5.798;2022-09-09T11:31:03;46.60;;;44.40;;
14965;SDS011;7577;45.226;5.798;2022-09-09T11:33:54;58.00;;;55.17;;
14965;SDS011;7577;45.226;5.798;2022-09-09T11:36:48;64.13;;;60.97;;
14965;SDS011;7577;45.226;5.798;2022-09-09T11:39:37;42.97;;;40.83;;
14965;SDS011;7577;45.226;5.798;2022-09-09T11:42:20;51.90;;;49.27;;
14965;SDS011;7577;45.226;5.798;2022-09-09T11:44:51;67.67;;;64.43;;
14965;SDS011;7577;45.226;5.798;2022-09-09T11:47:25;54.07;;;51.50;;
14965;SDS011;7577;45.226;5.798;2022-09-09T11:50:07;67.13;;;63.73;;
14965;SDS011;7577;45.226;5.798;2022-09-09T11:52:48;47.50;;;45.27;;
14965;SDS011;7577;45.226;5.798;2022-09-09T11:55:25;53.47;;;50.97;;
14965;SDS011;7577;45.226;5.798;2022-09-09T11:57:58;65.53;;;62.53;;
14965;SDS011;7577;45.226;5.798;2022-09-09T12:00:32;64.83;;;61.67;;
14965;SDS011;7577;45.226;5.798;2022-09-09T12:03:05;60.70;;;57.87;;
14965;SDS011;7577;45.226;5.798;2022-09-09T12:05:39;48.23;;;45.97;;
14965;SDS011;7577;45.226;5.798;2022-09-09T12:08:15;58.20;;;55.30;;
14965;SDS011;7577;45.226;5.798;2022-09-09T12:10:53;58.90;;;56.07;;
14965;SDS011;7577;45.226;5.798;2022-09-09T12:13:26;58.23;;;55.40;;
14965;SDS011;7577;45.226;5.798;2022-09-09T12:15:59;61.63;;;58.47;;
14965;SDS011;7577;45.226;5.798;2022-09-09T12:18:33;49.77;;;47.40;;
14965;SDS011;7577;45.226;5.798;2022-09-09T12:21:06;53.17;;;50.67;;
14965;SDS011;7577;45.226;5.798;2022-09-09T12:23:41;49.93;;;47.43;;
14965;SDS011;7577;45.226;5.798;2022-09-09T12:26:20;47.50;;;45.30;;
14965;SDS011;7577;45.226;5.798;2022-09-09T12:29:02;55.30;;;52.53;;
14965;SDS011;7577;45.226;5.798;2022-09-09T12:31:35;65.23;;;62.30;;
14965;SDS011;7577;45.226;5.798;2022-09-09T12:34:10;64.70;;;61.67;;
14965;SDS011;7577;45.226;5.798;2022-09-09T12:36:58;60.87;;;57.97;;
14965;SDS011;7577;45.226;5.798;2022-09-09T12:39:32;58.50;;;55.57;;
14965;SDS011;7577;45.226;5.798;2022-09-09T12:42:04;53.37;;;50.83;;
14965;SDS011;7577;45.226;5.798;2022-09-09T12:44:55;57.20;;;54.30;;
14965;SDS011;7577;45.226;5.798;2022-09-09T12:47:35;67.27;;;64.10;;
14965;SDS011;7577;45.226;5.798;2022-09-09T12:50:15;58.47;;;55.67;;
14965;SDS011;7577;45.226;5.798;2022-09-09T12:52:48;53.47;;;50.90;;
14965;SDS011;7577;45.226;5.798;2022-09-09T12:55:23;39.90;;;38.03;;
14965;SDS011;7577;45.226;5.798;2022-09-09T12:57:57;51.57;;;49.03;;
14965;SDS011;7577;45.226;5.798;2022-09-09T13:00:32;56.30;;;53.70;;
14965;SDS011;7577;45.226;5.798;2022-09-09T13:03:13;47.07;;;44.70;;
14965;SDS011;7577;45.226;5.798;2022-09-09T13:05:44;48.70;;;46.40;;
14965;SDS011;7577;45.226;5.798;2022-09-09T13:08:15;56.17;;;53.53;;
14965;SDS011;7577;45.226;5.798;2022-09-09T13:10:49;50.57;;;48.17;;
14965;SDS011;7577;45.226;5.798;2022-09-09T13:13:34;60.20;;;57.37;;
14965;SDS011;7577;45.226;5.798;2022-09-09T13:16:05;56.27;;;53.60;;
14965;SDS011;7577;45.226;5.798;2022-09-09T13:18:46;47.83;;;45.67;;
14965;SDS011;7577;45.226;5.798;2022-09-09T13:21:17;49.63;;;47.33;;
14965;SDS011;7577;45.226;5.798;2022-09-09T13:23:50;56.57;;;54.03;;
14965;SDS011;7577;45.226;5.798;2022-09-09T13:26:22;41.83;;;39.90;;
14965;SDS011;7577;45.226;5.798;2022-09-09T13:28:54;63.93;;;61.03;;
14965;SDS011;7577;45.226;5.798;2022-09-09T13:31:28;56.70;;;54.00;;
14965;SDS011;7577;45.226;5.798;2022-09-09T13:34:00;50.67;;;48.40;;
14965;SDS011;7577;45.226;5.798;2022-09-09T13:36:50;61.07;;;58.13;;
14965;SDS011;7577;45.226;5.798;2022-09-09T13:39:21;52.57;;;50.17;;
14965;SDS011;7577;45.226;5.798;2022-09-09T13:41:51;61.93;;;58.93;;
14965;SDS011;7577;45.226;5.798;2022-09-09T13:44:39;45.93;;;43.87;;
14965;SDS011;7577;45.226;5.798;2022-09-09T13:47:17;53.80;;;51.23;;
14965;SDS011;7577;45.226;5.798;2022-09-09T13:49:50;51.47;;;48.93;;
14965;SDS011;7577;45.226;5.798;2022-09-09T13:52:21;47.53;;;45.30;;
14965;SDS011;7577;45.226;5.798;2022-09-09T13:54:53;51.23;;;48.83;;
14965;SDS011;7577;45.226;5.798;2022-09-09T13:57:25;51.90;;;49.40;;
14965;SDS011;7577;45.226;5.798;2022-09-09T13:59:55;50.10;;;47.80;;
14965;SDS011;7577;45.226;5.798;2022-09-09T14:02:25;57.37;;;54.70;;
14965;SDS011;7577;45.226;5.798;2022-09-09T14:04:55;54.23;;;51.67;;
14965;SDS011;7577;45.226;5.798;2022-09-09T14:07:25;63.80;;;60.77;;
14965;SDS011;7577;45.226;5.798;2022-09-09T14:09:55;57.53;;;54.83;;
14965;SDS011;7577;45.226;5.798;2022-09-09T14:12:27;64.53;;;61.27;;
14965;SDS011;7577;45.226;5.798;2022-09-09T14:15:09;51.50;;;49.10;;
14965;SDS011;7577;45.226;5.798;2022-09-09T14:17:40;61.17;;;58.27;;
14965;SDS011;7577;45.226;5.798;2022-09-09T14:20:11;89.70;;;85.47;;
14965;SDS011;7577;45.226;5.798;2022-09-09T14:22:42;55.00;;;52.30;;
14965;SDS011;7577;45.226;5.798;2022-09-09T14:25:12;54.40;;;51.73;;
14965;SDS011;7577;45.226;5.798;2022-09-09T14:27:42;49.40;;;47.03;;
14965;SDS011;7577;45.226;5.798;2022-09-09T14:30:13;55.30;;;52.73;;
14965;SDS011;7577;45.226;5.798;2022-09-09T14:32:43;41.83;;;40.00;;
14965;SDS011;7577;45.226;5.798;2022-09-09T14:35:14;62.37;;;59.47;;
14965;SDS011;7577;45.226;5.798;2022-09-09T14:37:57;59.40;;;56.63;;
14965;SDS011;7577;45.226;5.798;2022-09-09T14:40:28;57.20;;;54.50;;
14965;SDS011;7577;45.226;5.798;2022-09-09T14:42:58;55.63;;;52.83;;
14965;SDS011;7577;45.226;5.798;2022-09-09T14:45:29;47.60;;;45.30;;
14965;SDS011;7577;45.226;5.798;2022-09-09T14:48:11;62.67;;;59.57;;
14965;SDS011;7577;45.226;5.798;2022-09-09T14:51:34;47.30;;;45.27;;
14965;SDS011;7577;45.226;5.798;2022-09-09T14:54:05;65.23;;;62.27;;
14965;SDS011;7577;45.226;5.798;2022-09-09T14:56:35;45.83;;;43.60;;
14965;SDS011;7577;45.226;5.798;2022-09-09T14:59:05;48.83;;;46.43;;
14965;SDS011;7577;45.226;5.798;2022-09-09T15:01:35;56.23;;;53.60;;
14965;SDS011;7577;45.226;5.798;2022-09-09T15:04:05;41.47;;;39.63;;
14965;SDS011;7577;45.226;5.798;2022-09-09T15:06:36;48.00;;;45.73;;
14965;SDS011;7577;45.226;5.798;2022-09-09T15:09:08;58.37;;;55.43;;
14965;SDS011;7577;45.226;5.798;2022-09-09T15:11:39;47.10;;;44.77;;
14965;SDS011;7577;45.226;5.798;2022-09-09T15:14:09;50.17;;;47.63;;
14965;SDS011;7577;45.226;5.798;2022-09-09T15:16:40;54.70;;;52.03;;
14965;SDS011;7577;45.226;5.798;2022-09-09T15:19:10;43.93;;;41.97;;
14965;SDS011;7577;45.226;5.798;2022-09-09T15:21:43;41.77;;;39.87;;
14965;SDS011;7577;45.226;5.798;2022-09-09T15:24:14;41.53;;;39.63;;
14965;SDS011;7577;45.226;5.798;2022-09-09T15:26:45;39.93;;;38.17;;
14965;SDS011;7577;45.226;5.798;2022-09-09T15:29:15;44.57;;;42.40;;
14965;SDS011;7577;45.226;5.798;2022-09-09T15:31:46;45.73;;;43.57;;
14965;SDS011;7577;45.226;5.798;2022-09-09T15:34:17;40.77;;;38.80;;
14965;SDS011;7577;45.226;5.798;2022-09-09T15:36:58;34.40;;;32.77;;
14965;SDS011;7577;45.226;5.798;2022-09-09T15:39:28;35.10;;;33.37;;
14965;SDS011;7577;45.226;5.798;2022-09-09T15:41:58;44.20;;;42.20;;
14965;SDS011;7577;45.226;5.798;2022-09-09T15:44:42;36.23;;;34.50;;
14965;SDS011;7577;45.226;5.798;2022-09-09T15:47:12;42.27;;;40.27;;
14965;SDS011;7577;45.226;5.798;2022-09-09T15:49:43;43.03;;;41.07;;
14965;SDS011;7577;45.226;5.798;2022-09-09T15:52:13;37.67;;;35.77;;
14965;SDS011;7577;45.226;5.798;2022-09-09T15:54:43;39.63;;;37.57;;
14965;SDS011;7577;45.226;5.798;2022-09-09T15:57:14;45.00;;;42.97;;
14965;SDS011;7577;45.226;5.798;2022-09-09T15:59:44;51.93;;;49.53;;
14965;SDS011;7577;45.226;5.798;2022-09-09T16:02:15;43.37;;;41.23;;
14965;SDS011;7577;45.226;5.798;2022-09-09T16:04:45;41.43;;;39.57;;
14965;SDS011;7577;45.226;5.798;2022-09-09T16:07:16;51.93;;;49.40;;
14965;SDS011;7577;45.226;5.798;2022-09-09T16:09:47;45.37;;;43.27;;
14965;SDS011;7577;45.226;5.798;2022-09-09T16:12:18;41.00;;;39.07;;
14965;SDS011;7577;45.226;5.798;2022-09-09T16:15:02;33.20;;;31.63;;
14965;SDS011;7577;45.226;5.798;2022-09-09T16:17:34;43.20;;;41.13;;
14965;SDS011;7577;45.226;5.798;2022-09-09T16:20:06;38.07;;;36.17;;
14965;SDS011;7577;45.226;5.798;2022-09-09T16:22:36;39.23;;;37.37;;
14965;SDS011;7577;45.226;5.798;2022-09-09T16:25:08;29.77;;;28.30;;
14965;SDS011;7577;45.226;5.798;2022-09-09T16:27:38;31.60;;;30.00;;
14965;SDS011;7577;45.226;5.798;2022-09-09T16:30:09;26.03;;;24.87;;
14965;SDS011;7577;45.226;5.798;2022-09-09T16:32:52;29.33;;;28.03;;
14965;SDS011;7577;45.226;5.798;2022-09-09T16:35:23;27.40;;;26.13;;
14965;SDS011;7577;45.226;5.798;2022-09-09T16:38:03;29.47;;;28.13;;
14965;SDS011;7577;45.226;5.798;2022-09-09T16:40:34;32.77;;;31.13;;
14965;SDS011;7577;45.226;5.798;2022-09-09T16:43:17;23.73;;;22.67;;
14965;SDS011;7577;45.226;5.798;2022-09-09T16:45:48;41.60;;;39.73;;
14965;SDS011;7577;45.226;5.798;2022-09-09T16:48:18;33.40;;;31.93;;
14965;SDS011;7577;45.226;5.798;2022-09-09T16:50:48;27.70;;;26.37;;
14965;SDS011;7577;45.226;5.798;2022-09-09T16:53:18;35.03;;;33.37;;
14965;SDS011;7577;45.226;5.798;2022-09-09T16:55:48;29.03;;;27.67;;
14965;SDS011;7577;45.226;5.798;2022-09-09T16:58:18;31.33;;;29.87;;
14965;SDS011;7577;45.226;5.798;2022-09-09T17:00:50;29.93;;;28.63;;
14965;SDS011;7577;45.226;5.798;2022-09-09T17:03:23;24.37;;;23.20;;
14965;SDS011;7577;45.226;5.798;2022-09-09T17:05:54;36.37;;;34.67;;
14965;SDS011;7577;45.226;5.798;2022-09-09T17:08:25;28.07;;;26.73;;
14965;SDS011;7577;45.226;5.798;2022-09-09T17:10:56;20.60;;;19.67;;
14965;SDS011;7577;45.226;5.798;2022-09-09T17:13:37;25.03;;;23.73;;
14965;SDS011;7577;45.226;5.798;2022-09-09T17:16:07;24.80;;;23.70;;
14965;SDS011;7577;45.226;5.798;2022-09-09T17:18:37;21.83;;;20.83;;
14965;SDS011;7577;45.226;5.798;2022-09-09T17:21:09;21.73;;;20.70;;
14965;SDS011;7577;45.226;5.798;2022-09-09T17:23:41;26.10;;;24.87;;
14965;SDS011;7577;45.226;5.798;2022-09-09T17:26:14;21.87;;;20.90;;
14965;SDS011;7577;45.226;5.798;2022-09-09T17:28:45;19.17;;;18.20;;
14965;SDS011;7577;45.226;5.798;2022-09-09T17:31:17;22.70;;;21.37;;